Terminal Aerodrome Forecast
Issued by NWS

Home | Current Version | Previous Version | Graphics & Text | Print | Product List | Glossary On
Versions: 1 2 3 4 5 6 7 8 9 10 11 12 13 14 15 16 17 18 19 20 21 22
000
FTUS43 KICT 290830 AAA
TAFHUT
TAF AMD
KHUT 290830Z 2909/3006 VRB03KT 6SM BR SCT004 BKN020
      TEMPO 2909/2913 4SM BR BKN004 OVC015
     FM291300 19010KT P6SM SCT020 BKN035
     FM291600 19015KT P6SM BKN080
     FM300100 20004KT P6SM BKN120=

USA.gov is the U.S. government's official web portal to all federal, state and local government web resources and services.